Time;durP1;ratioP1;P1;durP2;ratioP2;P2;SDS_P1;SDS_P2;PMS_P1;PMS_P2;Temp;Humidity;BMP_temperature;BMP_pressure;BME280_temperature;BME280_humidity;BME280_pressure;Samples;Min_cycle;Max_cycle;Signal;HPM_P1;HPM_P2
2022/01/24 04:18:36;;;;;;;93.90;31.43;;;;;;;;;;5903372;23;20179;31
2022/01/24 07:01:06;;;;;;;73.30;24.27;;;;;;;;;;5448586;24;20049;-84
2022/01/24 07:03:34;;;;;;;77.53;24.38;;;;;;;;;;4857190;29;20065;-83
2022/01/24 07:06:01;;;;;;;71.65;25.10;;;;;;;;;;4856757;29;20093;-86
2022/01/24 07:08:28;;;;;;;69.13;23.92;;;;;;;;;;4840138;29;20115;-85
2022/01/24 07:10:55;;;;;;;72.63;23.90;;;;;;;;;;4856994;29;20402;-84
2022/01/24 07:13:21;;;;;;;75.55;25.35;;;;;;;;;;4855891;29;20056;-85
2022/01/24 07:16:00;;;;;;;67.55;22.73;;;;;;;;;;4855553;29;20077;-82
2022/01/24 07:21:01;;;;;;;67.68;23.95;;;;;;;;;;4856658;29;20502;-83
2022/01/24 07:23:28;;;;;;;65.75;23.85;;;;;;;;;;4856144;29;20108;-83
2022/01/24 07:25:59;;;;;;;75.15;23.38;;;;;;;;;;4856937;29;20578;-83
2022/01/24 07:28:26;;;;;;;69.40;22.73;;;;;;;;;;4859807;29;20057;-83
2022/01/24 07:30:53;;;;;;;74.47;23.92;;;;;;;;;;4859021;29;20194;-83
2022/01/24 07:33:19;;;;;;;62.70;23.77;;;;;;;;;;4858468;29;20125;-82
2022/01/24 07:35:46;;;;;;;76.57;24.65;;;;;;;;;;4867225;29;20046;-83
2022/01/24 07:38:13;;;;;;;67.05;23.45;;;;;;;;;;4858195;29;20049;-82
2022/01/24 07:40:42;;;;;;;64.22;24.00;;;;;;;;;;4858189;29;20456;-82
2022/01/24 07:45:37;;;;;;;67.68;24.27;;;;;;;;;;4858895;29;20077;-82
2022/01/24 07:48:05;;;;;;;64.43;24.23;;;;;;;;;;4858445;29;20041;-81
2022/01/24 07:50:33;;;;;;;69.05;23.67;;;;;;;;;;4858302;29;20113;-82
2022/01/24 07:53:05;;;;;;;67.15;23.40;;;;;;;;;;4858480;29;20057;-80
2022/01/24 07:55:31;;;;;;;63.50;22.88;;;;;;;;;;4858042;29;20124;-82
2022/01/24 07:57:58;;;;;;;67.22;24.13;;;;;;;;;;4857998;29;20518;-83
2022/01/24 08:00:25;;;;;;;77.15;24.25;;;;;;;;;;4857755;29;20042;-83
2022/01/24 08:02:57;;;;;;;67.53;24.10;;;;;;;;;;4842889;29;20057;-83
2022/01/24 08:05:25;;;;;;;73.25;24.77;;;;;;;;;;4841645;29;20069;-83
2022/01/24 08:07:52;;;;;;;75.25;26.15;;;;;;;;;;4846310;29;20407;-82
2022/01/24 08:10:19;;;;;;;75.53;24.35;;;;;;;;;;4844135;29;20049;-82
2022/01/24 08:12:46;;;;;;;73.95;24.33;;;;;;;;;;4866769;29;20476;-83
2022/01/24 08:15:14;;;;;;;82.20;26.23;;;;;;;;;;4866406;29;20084;-82
2022/01/24 08:17:42;;;;;;;78.53;27.20;;;;;;;;;;4866282;29;20077;-83
2022/01/24 08:20:10;;;;;;;73.57;25.20;;;;;;;;;;4866062;29;20110;-82
2022/01/24 08:22:57;;;;;;;79.10;25.83;;;;;;;;;;4863593;29;20092;-82
2022/01/24 08:25:26;;;;;;;76.18;26.10;;;;;;;;;;4866193;29;20109;-82
2022/01/24 08:27:54;;;;;;;77.15;25.90;;;;;;;;;;4860351;29;20113;-84
2022/01/24 08:30:26;;;;;;;82.80;27.60;;;;;;;;;;4857970;29;20053;-84
2022/01/24 08:32:53;;;;;;;77.53;25.38;;;;;;;;;;4857474;29;20434;-84
2022/01/24 08:35:21;;;;;;;74.93;25.70;;;;;;;;;;4841119;29;20077;-84
2022/01/24 08:37:48;;;;;;;88.78;27.05;;;;;;;;;;4847967;29;20129;-85
2022/01/24 08:40:27;;;;;;;80.65;26.67;;;;;;;;;;4857129;29;20045;-85
2022/01/24 08:45:42;;;;;;;71.47;23.75;;;;;;;;;;4857661;29;19924;-85
2022/01/24 08:48:09;;;;;;;82.85;27.40;;;;;;;;;;4841210;29;20144;-83
2022/01/24 08:50:36;;;;;;;73.30;25.05;;;;;;;;;;4865411;29;20519;-83
2022/01/24 08:53:03;;;;;;;73.47;25.27;;;;;;;;;;4855917;29;20570;-82
2022/01/24 08:55:31;;;;;;;70.00;25.65;;;;;;;;;;4856631;29;20085;-83
2022/01/24 08:57:59;;;;;;;71.80;26.25;;;;;;;;;;4857630;29;20085;-82
2022/01/24 09:00:27;;;;;;;76.35;25.55;;;;;;;;;;4854996;29;20304;-82
2022/01/24 09:02:54;;;;;;;73.53;24.40;;;;;;;;;;4855919;29;20057;-82
2022/01/24 09:05:23;;;;;;;68.43;22.58;;;;;;;;;;4855012;29;20054;-82
2022/01/24 09:07:51;;;;;;;62.10;21.65;;;;;;;;;;4852499;29;20110;-82
2022/01/24 09:10:19;;;;;;;63.60;22.42;;;;;;;;;;4854621;29;20157;-82
2022/01/24 09:12:46;;;;;;;63.80;22.50;;;;;;;;;;4855529;29;20060;-81
2022/01/24 09:15:14;;;;;;;62.45;22.80;;;;;;;;;;4855309;29;20494;-82
2022/01/24 09:17:42;;;;;;;66.28;23.58;;;;;;;;;;4855225;29;20088;-82
2022/01/24 09:20:11;;;;;;;61.63;23.02;;;;;;;;;;4855813;29;20061;-82
2022/01/24 09:22:43;;;;;;;60.10;21.83;;;;;;;;;;4859520;29;20057;-82
2022/01/24 09:25:10;;;;;;;73.18;21.23;;;;;;;;;;4857342;29;20113;-82
2022/01/24 09:27:41;;;;;;;58.33;20.45;;;;;;;;;;4854814;29;20452;-83
2022/01/24 09:30:09;;;;;;;62.83;21.80;;;;;;;;;;4855912;29;20074;-82
2022/01/24 09:32:36;;;;;;;66.33;22.40;;;;;;;;;;4857254;29;20077;-83
2022/01/24 09:35:04;;;;;;;59.58;20.67;;;;;;;;;;4854818;29;20046;-82
2022/01/24 09:37:31;;;;;;;62.38;21.58;;;;;;;;;;4855915;29;20053;-82
2022/01/24 09:39:58;;;;;;;61.55;22.67;;;;;;;;;;4855743;29;20070;-81
2022/01/24 09:42:25;;;;;;;68.47;24.65;;;;;;;;;;4853083;29;20141;-82
2022/01/24 09:44:52;;;;;;;67.72;23.58;;;;;;;;;;4856121;29;20148;-82
2022/01/24 09:47:19;;;;;;;67.72;22.63;;;;;;;;;;4855536;29;20065;-81
2022/01/24 09:49:47;;;;;;;63.47;21.42;;;;;;;;;;4855652;29;20156;-81
2022/01/24 09:52:14;;;;;;;58.45;21.88;;;;;;;;;;4855365;29;20053;-81
2022/01/24 09:54:41;;;;;;;57.63;20.80;;;;;;;;;;4838790;29;20057;-82
2022/01/24 09:57:08;;;;;;;57.90;21.38;;;;;;;;;;4855790;29;20086;-81
2022/01/24 09:59:35;;;;;;;56.80;19.90;;;;;;;;;;4855530;29;20077;-82
2022/01/24 10:02:03;;;;;;;54.65;21.42;;;;;;;;;;4854240;29;20050;-82
2022/01/24 10:04:30;;;;;;;53.27;19.87;;;;;;;;;;4855606;29;20061;-82
2022/01/24 10:06:59;;;;;;;55.22;20.25;;;;;;;;;;4855308;29;20113;-82
2022/01/24 10:09:37;;;;;;;64.88;21.55;;;;;;;;;;4838466;29;20121;-82
2022/01/24 10:17:52;;;;;;;50.55;19.02;;;;;;;;;;4855265;29;20057;-83
2022/01/24 10:20:42;;;;;;;47.50;19.00;;;;;;;;;;4855002;29;20097;-82
2022/01/24 10:23:16;;;;;;;54.13;19.23;;;;;;;;;;4855500;29;20057;-83
2022/01/24 10:26:03;;;;;;;54.92;19.70;;;;;;;;;;4855020;29;20068;-82
2022/01/24 10:28:44;;;;;;;51.55;20.13;;;;;;;;;;4854963;29;20464;-83
2022/01/24 10:31:11;;;;;;;61.65;21.67;;;;;;;;;;4855073;29;20049;-83
2022/01/24 10:33:59;;;;;;;59.25;20.70;;;;;;;;;;4855422;29;20060;-82
2022/01/24 10:36:32;;;;;;;54.53;20.17;;;;;;;;;;4855415;29;20511;-81
2022/01/24 10:39:11;;;;;;;56.47;21.52;;;;;;;;;;4854926;29;20138;-84
2022/01/24 10:42:11;;;;;;;59.70;20.95;;;;;;;;;;4854752;29;20470;-81
2022/01/24 10:44:34;;;;;;;56.33;20.20;;;;;;;;;;4854027;29;20161;-83
2022/01/24 10:47:14;;;;;;;66.72;20.55;;;;;;;;;;4853620;29;20049;-82
2022/01/24 10:49:42;;;;;;;52.47;19.77;;;;;;;;;;4853998;29;20543;-82
2022/01/24 10:52:21;;;;;;;61.50;22.00;;;;;;;;;;4859828;29;20125;-82
2022/01/24 10:54:49;;;;;;;52.55;20.35;;;;;;;;;;4826217;29;20363;-81
2022/01/24 10:57:25;;;;;;;53.15;20.60;;;;;;;;;;4854403;29;20049;-80
2022/01/24 11:00:02;;;;;;;55.75;19.95;;;;;;;;;;4852741;29;20078;-81
2022/01/24 11:02:40;;;;;;;57.22;20.52;;;;;;;;;;4846905;29;20051;-82
2022/01/24 11:05:15;;;;;;;46.75;18.65;;;;;;;;;;4855383;29;20057;-80
2022/01/24 11:07:50;;;;;;;52.08;18.63;;;;;;;;;;4855261;29;20073;-79
2022/01/24 11:10:18;;;;;;;54.20;18.88;;;;;;;;;;4855894;29;20049;-81
2022/01/24 11:12:45;;;;;;;46.63;18.48;;;;;;;;;;4857749;29;20399;-81
2022/01/24 11:15:11;;;;;;;48.40;19.33;;;;;;;;;;4856912;29;20078;-80
2022/01/24 11:17:40;;;;;;;48.78;18.65;;;;;;;;;;4853830;29;20117;-80
2022/01/24 11:20:10;;;;;;;42.33;17.77;;;;;;;;;;4858574;29;20052;-81
2022/01/24 11:22:43;;;;;;;45.60;16.25;;;;;;;;;;4841080;29;20578;-81
2022/01/24 11:25:12;;;;;;;36.17;16.50;;;;;;;;;;4855415;29;20070;-81
2022/01/24 11:27:41;;;;;;;39.20;16.88;;;;;;;;;;4857130;29;20787;-81
2022/01/24 11:30:11;;;;;;;40.88;16.95;;;;;;;;;;4859442;29;20507;-81
2022/01/24 11:32:48;;;;;;;38.42;16.15;;;;;;;;;;4857385;29;20085;-81
2022/01/24 11:35:33;;;;;;;42.47;16.50;;;;;;;;;;4853884;29;20109;-81
2022/01/24 11:38:00;;;;;;;43.00;16.15;;;;;;;;;;4852930;29;20510;-80
2022/01/24 11:40:44;;;;;;;35.47;15.70;;;;;;;;;;4856540;29;20128;-79
2022/01/24 11:43:33;;;;;;;36.50;15.75;;;;;;;;;;4853216;29;20535;-80
2022/01/24 11:46:08;;;;;;;38.15;16.00;;;;;;;;;;4851762;29;20461;-80
2022/01/24 11:48:38;;;;;;;38.60;16.27;;;;;;;;;;4854279;29;20061;-80
2022/01/24 11:51:12;;;;;;;35.03;16.17;;;;;;;;;;4849400;29;20187;-79
2022/01/24 11:53:47;;;;;;;43.35;17.52;;;;;;;;;;4850745;29;20045;-80
2022/01/24 11:56:28;;;;;;;36.25;17.05;;;;;;;;;;4852833;29;20140;-79
2022/01/24 11:59:18;;;;;;;38.38;17.00;;;;;;;;;;4855283;29;20080;-79
2022/01/24 12:01:51;;;;;;;42.60;19.42;;;;;;;;;;4825057;29;20136;-80
2022/01/24 12:04:56;;;;;;;40.40;17.63;;;;;;;;;;4854689;29;20533;-79
2022/01/24 12:07:26;;;;;;;42.08;17.73;;;;;;;;;;4853990;29;20054;-79
2022/01/24 12:09:54;;;;;;;43.58;18.42;;;;;;;;;;4854634;29;20045;-79
2022/01/24 12:12:36;;;;;;;49.08;19.33;;;;;;;;;;4854105;29;20045;-79
2022/01/24 12:15:05;;;;;;;50.45;21.77;;;;;;;;;;4838307;29;20049;-81
2022/01/24 12:17:48;;;;;;;46.00;20.23;;;;;;;;;;4837011;29;20061;-82
2022/01/24 12:20:31;;;;;;;39.25;17.33;;;;;;;;;;4850801;29;20084;-83
2022/01/24 12:23:16;;;;;;;44.55;19.02;;;;;;;;;;4858637;29;20109;-80
2022/01/24 12:26:05;;;;;;;49.05;17.23;;;;;;;;;;4858684;29;20065;-82
2022/01/24 12:28:41;;;;;;;62.47;31.10;;;;;;;;;;4855404;29;20077;-81
2022/01/24 12:31:16;;;;;;;68.22;35.97;;;;;;;;;;4854855;29;20438;-82
2022/01/24 12:33:55;;;;;;;37.55;16.67;;;;;;;;;;4855631;29;20144;-81
2022/01/24 12:36:37;;;;;;;;;;;;;;;;;;4855447;29;20049;-82
2022/01/24 12:39:13;;;;;;;37.15;16.65;;;;;;;;;;4855784;29;20015;-82
2022/01/24 12:41:46;;;;;;;33.92;16.45;;;;;;;;;;4840819;29;20045;-81
2022/01/24 12:47:02;;;;;;;35.78;15.20;;;;;;;;;;4858558;29;20082;-83
2022/01/24 12:49:30;;;;;;;32.07;15.03;;;;;;;;;;4840942;29;20122;-82
2022/01/24 12:52:03;;;;;;;34.33;15.23;;;;;;;;;;4855557;29;20073;-83
2022/01/24 12:54:35;;;;;;;33.05;14.55;;;;;;;;;;4855251;29;20045;-83
2022/01/24 12:57:07;;;;;;;30.48;13.93;;;;;;;;;;4839516;29;20053;-83
2022/01/24 12:59:35;;;;;;;29.20;13.75;;;;;;;;;;4855452;29;20126;-83
2022/01/24 13:02:04;;;;;;;32.20;14.40;;;;;;;;;;4857668;29;20113;-82
2022/01/24 13:04:39;;;;;;;30.63;14.63;;;;;;;;;;4854416;29;20053;-83
2022/01/24 13:07:08;;;;;;;28.20;14.48;;;;;;;;;;4855670;29;20408;-82
2022/01/24 13:09:36;;;;;;;33.20;17.10;;;;;;;;;;4855024;29;20054;-82
2022/01/24 13:12:07;;;;;;;33.25;15.63;;;;;;;;;;4840131;29;20045;-83
2022/01/24 13:22:51;;;;;;;31.25;14.82;;;;;;;;;;4855490;29;19924;-83
2022/01/24 13:25:25;;;;;;;36.88;15.77;;;;;;;;;;4853262;29;20050;-83
2022/01/24 13:28:21;;;;;;;29.65;14.90;;;;;;;;;;4856081;29;20480;-83
2022/01/24 13:31:01;;;;;;;40.28;16.23;;;;;;;;;;4843395;29;20041;-83
2022/01/24 13:33:30;;;;;;;32.03;15.10;;;;;;;;;;4853393;29;20060;-83
2022/01/24 13:36:07;;;;;;;30.55;15.23;;;;;;;;;;4854163;29;20050;-83
2022/01/24 13:38:37;;;;;;;32.45;14.82;;;;;;;;;;4855018;29;20127;-83
2022/01/24 13:41:07;;;;;;;38.63;17.98;;;;;;;;;;4857639;29;20050;-82
2022/01/24 13:43:35;;;;;;;37.60;17.65;;;;;;;;;;4853736;29;20086;-83
2022/01/24 13:46:38;;;;;;;38.55;16.67;;;;;;;;;;4855490;29;20057;-83
2022/01/24 13:49:08;;;;;;;31.95;15.20;;;;;;;;;;4853279;29;20065;-82
2022/01/24 13:51:38;;;;;;;29.98;14.95;;;;;;;;;;4854202;29;20102;-82
2022/01/24 13:54:26;;;;;;;36.53;18.33;;;;;;;;;;4853197;29;20152;-80
2022/01/24 13:56:55;;;;;;;33.17;15.32;;;;;;;;;;4841761;29;20192;-82
2022/01/24 13:59:27;;;;;;;35.47;16.48;;;;;;;;;;4855839;29;20499;-82
2022/01/24 14:02:09;;;;;;;31.40;15.70;;;;;;;;;;4855262;29;20064;-82
2022/01/24 14:04:48;;;;;;;32.45;16.33;;;;;;;;;;4855403;29;20541;-83
2022/01/24 14:07:15;;;;;;;35.80;17.63;;;;;;;;;;4853632;29;20045;-82
2022/01/24 14:09:50;;;;;;;52.42;23.45;;;;;;;;;;4853551;29;20522;-83
2022/01/24 14:12:22;;;;;;;42.47;20.35;;;;;;;;;;4852904;29;20110;-82
2022/01/24 14:15:33;;;;;;;39.22;17.77;;;;;;;;;;4853668;29;20128;-83
2022/01/24 14:18:31;;;;;;;38.75;18.45;;;;;;;;;;4841532;29;20514;-84
2022/01/24 14:21:08;;;;;;;34.28;16.00;;;;;;;;;;4840447;29;20050;-83
2022/01/24 14:23:35;;;;;;;32.92;16.52;;;;;;;;;;4854330;29;20050;-83
2022/01/24 14:26:20;;;;;;;34.92;16.13;;;;;;;;;;4856390;29;20483;-83
2022/01/24 14:28:48;;;;;;;45.55;20.63;;;;;;;;;;4839699;29;20497;-84
2022/01/24 14:31:17;;;;;;;41.28;20.10;;;;;;;;;;4853350;29;20415;-83
2022/01/24 14:33:44;;;;;;;45.75;21.33;;;;;;;;;;4853908;29;20132;-82
2022/01/24 14:36:17;;;;;;;55.80;25.02;;;;;;;;;;4854810;29;20079;-83
2022/01/24 14:39:06;;;;;;;48.90;21.60;;;;;;;;;;4853504;29;20111;-83
2022/01/24 14:41:45;;;;;;;49.40;23.98;;;;;;;;;;4854179;29;20074;-83
2022/01/24 14:46:59;;;;;;;55.83;23.25;;;;;;;;;;4854674;29;20555;-83
2022/01/24 14:49:29;;;;;;;49.60;21.83;;;;;;;;;;4852693;29;20053;-84
2022/01/24 14:52:02;;;;;;;50.70;21.42;;;;;;;;;;4853013;29;20049;-84
2022/01/24 14:54:32;;;;;;;43.78;21.08;;;;;;;;;;4853046;29;20057;-83
2022/01/24 14:57:02;;;;;;;40.47;20.63;;;;;;;;;;4852922;29;20118;-82
2022/01/24 14:59:33;;;;;;;42.03;20.20;;;;;;;;;;4854314;29;20053;-83
2022/01/24 15:02:00;;;;;;;38.85;19.15;;;;;;;;;;4855273;29;20057;-83
2022/01/24 15:04:28;;;;;;;41.75;19.60;;;;;;;;;;4854619;29;20094;-82
2022/01/24 15:06:55;;;;;;;40.28;20.05;;;;;;;;;;4854254;29;20122;-83
2022/01/24 15:09:27;;;;;;;54.20;22.38;;;;;;;;;;4852623;29;20085;-82
2022/01/24 15:11:56;;;;;;;49.38;21.67;;;;;;;;;;4853497;29;20095;-83
2022/01/24 15:14:31;;;;;;;;;;;;;;;;;;4860114;29;20046;-83
2022/01/24 15:25:40;;;;;;;53.92;24.33;;;;;;;;;;4862394;29;20558;-83
2022/01/24 15:27:51;;;;;;;52.95;25.20;;;;;;;;;;4852659;29;20109;-84
2022/01/24 15:30:21;;;;;;;56.47;26.25;;;;;;;;;;4852170;29;20072;-82
2022/01/24 15:32:57;;;;;;;72.72;35.97;;;;;;;;;;4853078;29;20854;-81
2022/01/24 15:35:24;;;;;;;48.17;23.50;;;;;;;;;;4838310;29;20049;-80
2022/01/24 15:37:51;;;;;;;56.63;24.27;;;;;;;;;;4854626;29;20057;-81
2022/01/24 15:40:18;;;;;;;61.20;29.85;;;;;;;;;;4852430;29;20069;-81
2022/01/24 15:48:18;;;;;;;50.47;23.70;;;;;;;;;;4832508;29;20050;-80
2022/01/24 15:50:45;;;;;;;46.22;24.35;;;;;;;;;;4821743;29;20088;-82
2022/01/24 15:53:11;;;;;;;41.65;19.70;;;;;;;;;;4835913;29;20054;-81
2022/01/24 15:55:42;;;;;;;41.75;20.75;;;;;;;;;;4832912;29;20069;-79
2022/01/24 15:58:09;;;;;;;100.50;40.30;;;;;;;;;;4831627;29;20247;-80
2022/01/24 16:00:40;;;;;;;96.80;40.53;;;;;;;;;;4832330;29;20193;-80
2022/01/24 16:03:09;;;;;;;44.63;20.80;;;;;;;;;;4827785;29;20050;-88
2022/01/24 16:05:38;;;;;;;38.30;21.38;;;;;;;;;;4838118;29;20805;-81
2022/01/24 16:08:08;;;;;;;45.65;21.45;;;;;;;;;;4838038;29;20054;-81
2022/01/24 16:10:35;;;;;;;40.95;20.30;;;;;;;;;;4836818;29;20087;-82
2022/01/24 16:13:02;;;;;;;37.67;20.70;;;;;;;;;;4836876;29;20136;-81
2022/01/24 16:15:32;;;;;;;36.95;20.67;;;;;;;;;;4836713;29;20114;-82
2022/01/24 16:18:00;;;;;;;38.60;21.23;;;;;;;;;;4836822;29;20046;-83
2022/01/24 16:23:04;;;;;;;36.50;18.77;;;;;;;;;;4838987;29;20098;-83
2022/01/24 16:25:37;;;;;;;40.53;20.27;;;;;;;;;;4856999;29;20086;-82
2022/01/24 16:28:08;;;;;;;38.42;21.48;;;;;;;;;;4855856;29;20046;-82
2022/01/24 16:30:37;;;;;;;38.15;19.90;;;;;;;;;;4865634;29;20038;-83
2022/01/24 16:33:05;;;;;;;39.10;20.45;;;;;;;;;;4848502;29;20507;-82
2022/01/24 16:35:33;;;;;;;38.70;18.65;;;;;;;;;;4862139;29;20053;-80
2022/01/24 16:38:00;;;;;;;46.13;26.77;;;;;;;;;;4867157;29;20045;-83
2022/01/24 16:40:41;;;;;;;39.95;20.23;;;;;;;;;;4862827;29;20052;-83
2022/01/24 16:48:22;;;;;;;41.72;21.23;;;;;;;;;;4855359;29;20053;-82
2022/01/24 16:50:49;;;;;;;45.83;23.08;;;;;;;;;;4856244;29;20498;-84
2022/01/24 16:53:18;;;;;;;43.40;21.85;;;;;;;;;;4856859;29;20061;-84
2022/01/24 16:55:46;;;;;;;51.58;23.52;;;;;;;;;;4855940;29;20573;-83
2022/01/24 16:58:14;;;;;;;51.42;23.95;;;;;;;;;;4858229;29;20064;-84
2022/01/24 17:00:41;;;;;;;51.53;25.45;;;;;;;;;;4855818;29;20455;-82
2022/01/24 17:03:08;;;;;;;55.38;27.25;;;;;;;;;;4855512;29;20137;-82
2022/01/24 17:05:40;;;;;;;47.17;22.38;;;;;;;;;;4856299;29;20050;-82
2022/01/24 17:08:07;;;;;;;49.45;23.23;;;;;;;;;;4854821;29;20057;-83
2022/01/24 17:10:35;;;;;;;45.00;22.15;;;;;;;;;;4856262;29;20058;-83
2022/01/24 17:13:05;;;;;;;48.05;22.98;;;;;;;;;;4835979;29;20054;-83
2022/01/24 17:15:33;;;;;;;47.35;23.35;;;;;;;;;;4854726;29;20121;-82
2022/01/24 17:18:01;;;;;;;51.03;24.30;;;;;;;;;;4852282;29;20393;-81
2022/01/24 17:20:28;;;;;;;49.10;22.10;;;;;;;;;;4854784;29;20049;-82
2022/01/24 17:23:01;;;;;;;52.13;24.35;;;;;;;;;;4857201;29;20432;-81
2022/01/24 17:25:48;;;;;;;46.85;23.88;;;;;;;;;;4854729;29;20046;-83
2022/01/24 17:28:15;;;;;;;54.65;23.10;;;;;;;;;;4853995;29;20045;-81
2022/01/24 17:30:53;;;;;;;53.25;24.77;;;;;;;;;;4855586;29;20057;-82
2022/01/24 17:33:20;;;;;;;49.90;24.48;;;;;;;;;;4853390;29;20056;-82
2022/01/24 17:35:47;;;;;;;49.90;25.00;;;;;;;;;;4852776;29;20049;-81
2022/01/24 17:38:14;;;;;;;49.03;23.08;;;;;;;;;;4853590;29;20415;-82
2022/01/24 17:40:41;;;;;;;45.13;22.52;;;;;;;;;;4853496;29;20519;-82
2022/01/24 17:43:09;;;;;;;51.35;23.08;;;;;;;;;;4848881;29;20053;-83
2022/01/24 17:45:47;;;;;;;54.35;27.92;;;;;;;;;;4851877;29;20067;-82
2022/01/24 17:48:14;;;;;;;64.22;32.55;;;;;;;;;;4837275;29;20137;-83
2022/01/24 17:50:40;;;;;;;58.35;27.90;;;;;;;;;;4855012;29;20479;-83
2022/01/24 17:53:07;;;;;;;53.03;26.80;;;;;;;;;;4855691;29;20045;-84
2022/01/24 17:55:34;;;;;;;57.08;28.25;;;;;;;;;;4854965;29;20057;-83
2022/01/24 17:58:01;;;;;;;46.85;23.80;;;;;;;;;;4854784;29;20080;-81
2022/01/24 18:00:28;;;;;;;51.10;23.80;;;;;;;;;;4854209;29;20070;-83
2022/01/24 18:02:54;;;;;;;53.58;24.15;;;;;;;;;;4854924;29;20152;-81
2022/01/24 18:05:21;;;;;;;50.45;24.13;;;;;;;;;;4854432;29;20654;-80
2022/01/24 18:07:50;;;;;;;54.55;25.02;;;;;;;;;;4855281;29;20105;-80
2022/01/24 18:10:19;;;;;;;51.22;25.15;;;;;;;;;;4854185;29;20057;-82
2022/01/24 18:12:49;;;;;;;54.92;24.58;;;;;;;;;;4839208;29;20057;-82
2022/01/24 18:15:17;;;;;;;45.88;24.08;;;;;;;;;;4853120;29;20061;-81
2022/01/24 18:17:45;;;;;;;51.22;24.98;;;;;;;;;;4854641;29;20053;-80
2022/01/24 18:20:13;;;;;;;48.55;25.02;;;;;;;;;;4855324;29;20062;-82
2022/01/24 18:22:39;;;;;;;53.45;26.33;;;;;;;;;;4855137;29;20081;-83
2022/01/24 18:25:15;;;;;;;57.03;24.33;;;;;;;;;;4852647;29;20072;-81
2022/01/24 18:27:41;;;;;;;82.72;39.60;;;;;;;;;;4854973;29;20114;-83
2022/01/24 18:30:09;;;;;;;81.00;39.00;;;;;;;;;;4853623;29;20110;-81
2022/01/24 18:32:36;;;;;;;56.83;27.58;;;;;;;;;;4856520;29;20131;-82
2022/01/24 18:35:05;;;;;;;52.42;25.17;;;;;;;;;;4857431;29;20053;-82
2022/01/24 18:37:31;;;;;;;52.95;26.10;;;;;;;;;;4853954;29;20050;-83
2022/01/24 18:39:58;;;;;;;53.08;26.33;;;;;;;;;;4855698;29;20045;-83
2022/01/24 18:42:29;;;;;;;52.55;25.90;;;;;;;;;;4853244;29;20787;-82
2022/01/24 18:44:58;;;;;;;75.30;39.38;;;;;;;;;;4854064;29;20046;-83
2022/01/24 18:47:26;;;;;;;70.80;35.63;;;;;;;;;;4859890;29;20069;-82
2022/01/24 18:49:52;;;;;;;60.63;29.97;;;;;;;;;;4838745;29;20061;-83
2022/01/24 18:52:20;;;;;;;66.93;31.92;;;;;;;;;;4856455;29;20053;-82
2022/01/24 18:54:48;;;;;;;65.18;32.60;;;;;;;;;;4855798;29;20124;-83
2022/01/24 18:57:15;;;;;;;57.38;28.92;;;;;;;;;;4853652;29;20045;-83
2022/01/24 18:59:42;;;;;;;56.45;26.35;;;;;;;;;;4853393;29;20113;-83
2022/01/24 19:02:09;;;;;;;46.42;24.42;;;;;;;;;;4855366;29;20057;-86
2022/01/24 19:04:39;;;;;;;54.25;26.02;;;;;;;;;;4836783;29;20463;-82
2022/01/24 19:07:12;;;;;;;60.95;26.55;;;;;;;;;;4849081;29;20064;-83
2022/01/24 19:09:39;;;;;;;91.00;55.28;;;;;;;;;;4851750;29;20078;-81
2022/01/24 19:12:07;;;;;;;82.53;55.58;;;;;;;;;;4851928;29;20042;-82
2022/01/24 19:14:35;;;;;;;;;;;;;;;;;;4852737;29;20118;-81
2022/01/24 19:17:05;;;;;;;76.05;40.00;;;;;;;;;;4853492;29;20397;-82
2022/01/24 19:19:45;;;;;;;92.43;45.22;;;;;;;;;;4851578;29;20494;-82
2022/01/24 19:24:57;;;;;;;75.45;37.13;;;;;;;;;;4855492;29;20098;-82
2022/01/24 19:27:24;;;;;;;66.00;33.38;;;;;;;;;;4849785;29;20404;-83
2022/01/24 19:29:50;;;;;;;66.57;32.45;;;;;;;;;;4855099;29;20519;-81
2022/01/24 19:32:17;;;;;;;66.70;35.70;;;;;;;;;;4855024;29;20057;-82
2022/01/24 19:34:45;;;;;;;65.25;33.22;;;;;;;;;;4855769;29;20053;-82
2022/01/24 19:37:13;;;;;;;63.42;33.47;;;;;;;;;;4854962;29;20052;-82
2022/01/24 19:39:40;;;;;;;72.20;38.33;;;;;;;;;;4830524;29;20917;-83
2022/01/24 19:42:08;;;;;;;67.13;34.13;;;;;;;;;;4815385;29;20057;-84
2022/01/24 19:44:36;;;;;;;59.87;30.33;;;;;;;;;;4854880;29;20069;-84
2022/01/24 19:47:04;;;;;;;65.53;33.33;;;;;;;;;;4856396;29;20314;-83
2022/01/24 19:49:31;;;;;;;60.35;33.05;;;;;;;;;;4852661;29;20109;-85
2022/01/24 19:52:01;;;;;;;61.50;30.20;;;;;;;;;;4855080;29;20060;-83
2022/01/24 19:54:31;;;;;;;61.85;30.00;;;;;;;;;;4854869;29;20054;-83
2022/01/24 19:57:08;;;;;;;61.75;30.35;;;;;;;;;;4855037;29;20070;-86
2022/01/24 19:59:56;;;;;;;64.90;30.05;;;;;;;;;;4855757;29;20542;-86
2022/01/24 20:02:22;;;;;;;63.53;32.45;;;;;;;;;;4855075;29;20056;-85
2022/01/24 20:04:49;;;;;;;68.07;33.35;;;;;;;;;;4838997;29;20132;-86
2022/01/24 20:07:16;;;;;;;61.40;30.02;;;;;;;;;;4854971;29;20510;-85
2022/01/24 20:09:42;;;;;;;67.47;29.70;;;;;;;;;;4838422;29;20118;-83
2022/01/24 20:12:09;;;;;;;67.53;30.13;;;;;;;;;;4854760;29;20056;-82
2022/01/24 20:14:37;;;;;;;60.92;28.40;;;;;;;;;;4855416;29;20064;-83
2022/01/24 20:17:04;;;;;;;65.50;29.10;;;;;;;;;;4855560;29;20050;-84
2022/01/24 20:19:31;;;;;;;67.10;30.92;;;;;;;;;;4854163;29;20120;-82
2022/01/24 20:21:58;;;;;;;65.07;29.38;;;;;;;;;;4854768;29;20042;-84
2022/01/24 20:24:27;;;;;;;65.95;29.90;;;;;;;;;;4854480;29;20061;-83
2022/01/24 20:26:54;;;;;;;62.67;29.42;;;;;;;;;;4856837;29;20077;-83
2022/01/24 20:29:26;;;;;;;72.35;33.05;;;;;;;;;;4855078;29;20499;-84
2022/01/24 20:31:53;;;;;;;69.18;33.17;;;;;;;;;;4837255;29;20053;-83
2022/01/24 20:34:21;;;;;;;71.10;31.80;;;;;;;;;;4837106;29;20477;-85
2022/01/24 20:36:49;;;;;;;65.47;31.02;;;;;;;;;;4838303;29;20053;-83
2022/01/24 20:39:16;;;;;;;70.20;31.38;;;;;;;;;;4837305;29;20510;-84
2022/01/24 20:41:43;;;;;;;64.82;29.42;;;;;;;;;;4850578;29;20060;-84
2022/01/24 20:44:09;;;;;;;62.83;29.98;;;;;;;;;;4835503;29;20099;-84
2022/01/24 20:46:36;;;;;;;69.60;29.50;;;;;;;;;;4853632;29;20541;-83
2022/01/24 20:49:05;;;;;;;63.30;30.10;;;;;;;;;;4836567;29;20061;-84
2022/01/24 20:51:32;;;;;;;67.15;29.42;;;;;;;;;;4852402;29;20057;-83
2022/01/24 20:53:59;;;;;;;66.65;28.15;;;;;;;;;;4856719;29;20093;-82
2022/01/24 20:56:31;;;;;;;68.30;30.92;;;;;;;;;;4837228;29;20122;-83
2022/01/24 20:58:58;;;;;;;66.57;29.90;;;;;;;;;;4854390;29;20054;-82
2022/01/24 21:01:24;;;;;;;88.55;34.72;;;;;;;;;;4852964;29;20057;-83
2022/01/24 21:03:51;;;;;;;66.18;29.33;;;;;;;;;;4833426;29;20526;-83
2022/01/24 21:06:18;;;;;;;65.45;30.27;;;;;;;;;;4836692;29;20050;-82
2022/01/24 21:08:44;;;;;;;69.40;29.83;;;;;;;;;;4853747;29;20093;-82
2022/01/24 21:11:13;;;;;;;67.75;30.27;;;;;;;;;;4855026;29;20062;-82
2022/01/24 21:16:15;;;;;;;63.25;29.20;;;;;;;;;;4857816;29;20057;-83
2022/01/24 21:18:42;;;;;;;82.20;35.85;;;;;;;;;;4862813;29;20060;-85
2022/01/24 21:21:10;;;;;;;77.80;36.97;;;;;;;;;;4861707;29;20751;-84
2022/01/24 21:23:37;;;;;;;84.60;39.83;;;;;;;;;;4847050;29;20073;-82
2022/01/24 21:26:05;;;;;;;111.15;54.92;;;;;;;;;;4846033;29;20404;-82
2022/01/24 21:28:32;;;;;;;79.22;37.83;;;;;;;;;;4860076;29;20085;-83
2022/01/24 21:30:59;;;;;;;68.88;29.40;;;;;;;;;;4858287;29;20052;-83
2022/01/24 21:33:35;;;;;;;74.32;30.52;;;;;;;;;;4838715;29;20502;-84
2022/01/24 21:36:02;;;;;;;69.38;31.02;;;;;;;;;;4858730;29;20104;-85
2022/01/24 21:38:29;;;;;;;70.78;29.95;;;;;;;;;;4860092;29;20054;-84
2022/01/24 21:40:57;;;;;;;74.65;31.73;;;;;;;;;;4861423;29;20073;-86
2022/01/24 21:43:24;;;;;;;79.07;37.00;;;;;;;;;;4859815;29;20061;-83
2022/01/24 21:45:51;;;;;;;74.70;34.92;;;;;;;;;;4855503;29;20060;-84
2022/01/24 21:48:18;;;;;;;71.47;31.08;;;;;;;;;;4862380;29;20050;-84
2022/01/24 21:50:45;;;;;;;75.30;30.48;;;;;;;;;;4862654;29;20049;-84
2022/01/24 21:53:11;;;;;;;68.05;29.35;;;;;;;;;;4846017;29;20045;-84
2022/01/24 21:55:38;;;;;;;75.25;32.70;;;;;;;;;;4868265;29;20049;-84
2022/01/24 21:58:06;;;;;;;73.63;30.92;;;;;;;;;;4849843;29;20041;-84
2022/01/24 22:00:33;;;;;;;76.68;31.08;;;;;;;;;;4861912;29;20050;-86
2022/01/24 22:03:02;;;;;;;71.20;31.70;;;;;;;;;;4865984;29;20816;-86
2022/01/24 22:05:30;;;;;;;70.90;32.83;;;;;;;;;;4855473;29;20065;-84
2022/01/24 22:10:32;;;;;;;91.15;37.35;;;;;;;;;;4863406;29;20527;-85
2022/01/24 22:13:06;;;;;;;89.65;39.58;;;;;;;;;;4861579;29;20571;-84
2022/01/24 22:15:33;;;;;;;78.13;34.30;;;;;;;;;;4862747;29;20063;-85
2022/01/24 22:18:01;;;;;;;81.57;38.70;;;;;;;;;;4866310;29;20045;-84
2022/01/24 22:20:31;;;;;;;73.13;33.33;;;;;;;;;;4861951;29;20149;-85
2022/01/24 22:23:29;;;;;;;78.30;32.30;;;;;;;;;;4866413;29;20526;-84
2022/01/24 22:26:08;;;;;;;78.00;32.88;;;;;;;;;;4863924;29;20065;-85
2022/01/24 22:28:35;;;;;;;;;;;;;;;;;;4861832;29;20049;-85
2022/01/24 22:31:04;;;;;;;70.43;30.67;;;;;;;;;;4862911;29;19980;-84
2022/01/24 22:33:31;;;;;;;;;;;;;;;;;;4862962;29;20053;-84